createdAt,value
2023-04-21T00:01:13.924Z,39.36
2023-04-21T00:06:22.771Z,38.92
2023-04-21T00:11:26.644Z,39.02
2023-04-21T00:16:31.823Z,38.81
2023-04-21T00:21:37.005Z,38.86
2023-04-21T00:26:40.384Z,38.44
2023-04-21T00:31:45.224Z,38.53
2023-04-21T00:36:48.752Z,38.78
2023-04-21T00:41:52.248Z,39.36
2023-04-21T00:46:57.247Z,39.50
2023-04-21T00:52:00.797Z,39.17
2023-04-21T00:57:04.651Z,39.18
2023-04-21T01:02:09.622Z,39.79
2023-04-21T01:07:12.910Z,39.38
2023-04-21T01:12:16.387Z,40.08
2023-04-21T01:17:21.730Z,40.60
2023-04-21T01:22:26.914Z,40.61
2023-04-21T01:27:30.584Z,41.08
2023-04-21T01:32:34.097Z,40.97
2023-04-21T01:37:39.434Z,41.20
2023-04-21T01:42:44.470Z,40.70
2023-04-21T01:47:48.063Z,41.26
2023-04-21T01:52:53.087Z,41.22
2023-04-21T01:57:57.878Z,40.42
2023-04-21T02:03:01.563Z,41.11
2023-04-21T02:08:07.150Z,42.23
2023-04-21T02:13:10.769Z,42.41
2023-04-21T02:18:15.100Z,42.33
2023-04-21T02:23:19.998Z,42.58
2023-04-21T02:28:23.422Z,42.15
2023-04-21T02:33:27.113Z,41.85
2023-04-21T02:38:32.136Z,41.37
2023-04-21T02:43:35.442Z,40.95
2023-04-21T02:48:39.021Z,41.48
2023-04-21T02:53:43.919Z,41.54
2023-04-21T02:58:47.462Z,42.14
2023-04-21T03:03:51.049Z,41.77
2023-04-21T03:08:56.865Z,41.92
2023-04-21T03:14:00.361Z,41.74
2023-04-21T03:19:03.908Z,40.74
2023-04-21T03:24:09.751Z,40.47
2023-04-21T03:29:13.278Z,40.33
2023-04-21T03:34:16.874Z,39.94
2023-04-21T03:39:21.993Z,39.64
2023-04-21T03:44:27.388Z,39.30
2023-04-21T03:49:30.868Z,39.33
2023-04-21T03:54:35.739Z,37.02
2023-04-21T03:59:38.981Z,27.10
2023-04-21T04:04:42.633Z,21.74
2023-04-21T04:09:47.656Z,18.28
2023-04-21T04:14:51.192Z,16.11
2023-04-21T04:19:54.709Z,14.25
2023-04-21T04:24:59.904Z,12.64
2023-04-21T04:30:04.813Z,11.81
2023-04-21T04:35:09.730Z,11.36
2023-04-21T04:40:15.548Z,10.42
2023-04-21T04:45:21.530Z,10.21
2023-04-21T04:50:25.271Z,9.61
2023-04-21T04:55:30.394Z,8.91
2023-04-21T05:00:34.013Z,8.33
2023-04-21T05:05:37.441Z,8.54
2023-04-21T05:10:42.354Z,8.00
2023-04-21T05:15:45.801Z,7.94
2023-04-21T05:20:49.279Z,7.73
2023-04-21T05:25:53.906Z,7.54
2023-04-21T05:30:57.322Z,6.73
2023-04-21T05:36:00.782Z,6.48
2023-04-21T05:41:06.408Z,7.11
2023-04-21T05:46:11.510Z,6.84
2023-04-21T05:51:16.649Z,6.08
2023-04-21T05:56:21.577Z,5.39
2023-04-21T06:01:25.414Z,5.21
2023-04-21T06:06:29.281Z,5.15
2023-04-21T06:11:34.678Z,5.52
2023-04-21T06:16:38.361Z,4.94
2023-04-21T06:21:42.088Z,5.29
2023-04-21T06:26:47.151Z,4.69
2023-04-21T06:31:50.747Z,4.63
2023-04-21T06:36:54.529Z,3.77
2023-04-21T06:41:59.424Z,3.50
2023-04-21T06:47:02.962Z,3.42
2023-04-21T06:52:06.624Z,3.78
2023-04-21T06:57:11.534Z,4.04
2023-04-21T07:02:15.063Z,4.03
2023-04-21T07:07:18.813Z,4.44
2023-04-21T07:12:24.132Z,4.56
2023-04-21T07:17:27.747Z,4.90
2023-04-21T07:22:31.674Z,4.40
2023-04-21T07:27:37.260Z,4.88
2023-04-21T07:32:40.964Z,4.85
2023-04-21T07:37:44.653Z,5.88
2023-04-21T07:42:49.622Z,5.36
2023-04-21T07:47:53.191Z,5.14
2023-04-21T07:52:56.804Z,5.30
2023-04-21T07:58:01.791Z,5.03
2023-04-21T08:03:05.696Z,5.37
2023-04-21T08:08:10.006Z,5.85
2023-04-21T08:13:15.080Z,6.06
2023-04-21T08:18:22.093Z,6.40
2023-04-21T08:23:26.326Z,7.27
2023-04-21T08:28:31.255Z,7.60
2023-04-21T08:33:34.840Z,9.90
2023-04-21T08:38:39.021Z,11.58
2023-04-21T08:43:44.095Z,12.40
2023-04-21T08:48:48.902Z,13.95
2023-04-21T08:53:52.486Z,14.57
2023-04-21T08:58:57.680Z,15.38
2023-04-21T09:04:17.648Z,15.67
2023-04-21T09:09:21.907Z,15.75
2023-04-21T09:14:34.133Z,16.37
2023-04-21T09:19:37.841Z,16.81
2023-04-21T09:24:47.101Z,16.83
2023-04-21T09:29:52.130Z,17.27
2023-04-21T09:35:01.587Z,17.94
2023-04-21T09:40:08.920Z,18.27
2023-04-21T09:50:51.287Z,18.80
2023-04-21T09:55:49.363Z,19.14
2023-04-21T10:00:57.565Z,19.15
2023-04-21T10:06:02.229Z,19.26
2023-04-21T10:11:06.904Z,18.46
2023-04-21T10:16:12.311Z,18.52
2023-04-21T10:21:22.265Z,18.78
2023-04-21T10:26:27.519Z,19.13
2023-04-21T10:31:34.802Z,18.77
2023-04-21T10:36:45.113Z,19.19
2023-04-21T10:41:49.002Z,19.86
2023-04-21T10:46:55.167Z,20.51
2023-04-21T10:52:06.419Z,20.36
2023-04-21T10:57:11.652Z,20.17
2023-04-21T11:02:18.753Z,20.41
2023-04-21T11:07:24.359Z,20.45
2023-04-21T11:12:32.808Z,20.71
2023-04-21T11:17:40.082Z,20.82
2023-04-21T11:22:43.750Z,20.27
2023-04-21T11:27:56.107Z,19.98
2023-04-21T11:33:01.296Z,20.44
2023-04-21T11:38:06.866Z,20.88
2023-04-21T11:43:10.546Z,20.96
2023-04-21T11:48:19.754Z,21.19
2023-04-21T11:53:23.405Z,20.54
2023-04-21T11:58:28.325Z,20.18
2023-04-21T12:03:34.074Z,20.00
2023-04-21T12:08:37.710Z,20.23
2023-04-21T12:13:42.022Z,20.46
2023-04-21T12:18:46.857Z,20.32
2023-04-21T12:23:50.594Z,20.31
2023-04-21T12:28:54.626Z,21.16
2023-04-21T12:33:59.597Z,20.75
2023-04-21T12:39:03.331Z,20.54
2023-04-21T12:44:07.527Z,20.88
2023-04-21T12:49:12.559Z,20.64
2023-04-21T12:54:16.319Z,20.29
2023-04-21T12:59:19.902Z,20.25
2023-04-21T13:04:25.192Z,20.31
2023-04-21T13:09:29.030Z,20.73
2023-04-21T13:14:32.603Z,20.99
2023-04-21T13:19:37.518Z,21.36
2023-04-21T13:24:41.350Z,21.36
2023-04-21T13:29:45.711Z,21.39
2023-04-21T13:34:50.638Z,21.50
2023-04-21T13:39:54.225Z,21.51
2023-04-21T13:44:57.751Z,21.27
2023-04-21T13:50:03.107Z,21.22
2023-04-21T13:55:08.900Z,21.55
2023-04-21T14:00:13.368Z,21.52
2023-04-21T14:05:18.247Z,21.31
2023-04-21T14:10:22.097Z,21.87
2023-04-21T14:15:26.229Z,21.78
2023-04-21T14:20:31.264Z,21.70
2023-04-21T14:25:34.793Z,21.77
2023-04-21T14:30:38.700Z,21.73
2023-04-21T14:35:43.617Z,22.05
2023-04-21T14:40:47.089Z,22.20
2023-04-21T14:45:50.903Z,22.03
2023-04-21T14:50:58.029Z,22.06
2023-04-21T14:56:01.814Z,22.24
2023-04-21T15:01:05.885Z,22.41
2023-04-21T15:06:11.236Z,22.63
2023-04-21T15:11:14.890Z,22.92
2023-04-21T15:16:18.389Z,23.34
2023-04-21T15:21:23.466Z,23.29
2023-04-21T15:26:27.008Z,23.83
2023-04-21T15:31:30.687Z,24.26
2023-04-21T15:36:35.881Z,24.10
2023-04-21T15:41:39.557Z,24.13
2023-04-21T15:46:43.550Z,23.94
2023-04-21T15:51:48.669Z,24.28
2023-04-21T15:56:52.124Z,24.36
2023-04-21T16:01:57.173Z,24.37
2023-04-21T16:07:02.379Z,24.68
2023-04-21T16:12:10.282Z,24.70
2023-04-21T16:17:14.728Z,25.22
2023-04-21T16:22:20.502Z,25.10
2023-04-21T16:27:24.079Z,25.49
2023-04-21T16:32:27.620Z,25.58
2023-04-21T16:37:32.629Z,25.96
2023-04-21T16:42:36.221Z,26.15
2023-04-21T16:47:42.094Z,26.37
2023-04-21T16:52:47.594Z,26.61
2023-04-21T16:57:51.263Z,27.09
2023-04-21T17:02:54.855Z,26.90
2023-04-21T17:07:59.878Z,27.29
2023-04-21T17:13:04.567Z,27.65
2023-04-21T17:18:08.127Z,27.78
2023-04-21T17:23:13.197Z,28.58
2023-04-21T17:28:16.804Z,29.08
2023-04-21T17:33:20.335Z,29.27
2023-04-21T17:38:25.471Z,30.39
2023-04-21T17:43:29.287Z,30.23
2023-04-21T17:48:32.917Z,31.53
2023-04-21T17:53:37.763Z,31.46
2023-04-21T17:58:41.550Z,31.56
2023-04-21T18:03:45.280Z,33.27
2023-04-21T18:08:50.364Z,33.32
2023-04-21T18:13:54.456Z,33.44
2023-04-21T18:18:57.878Z,34.27
2023-04-21T18:24:02.872Z,35.72
2023-04-21T18:29:06.472Z,36.04
2023-04-21T18:34:11.884Z,36.04
2023-04-21T18:39:16.811Z,36.72
2023-04-21T18:44:20.079Z,34.95
2023-04-21T18:49:23.776Z,36.22
2023-04-21T18:54:28.655Z,37.00
2023-04-21T18:59:31.775Z,35.50
2023-04-21T19:04:35.353Z,37.08
2023-04-21T19:09:40.364Z,37.79
2023-04-21T19:14:47.446Z,39.28
2023-04-21T19:19:51.457Z,39.90
2023-04-21T19:24:57.246Z,39.68
2023-04-21T19:30:00.898Z,39.74
2023-04-21T19:35:04.901Z,39.85
2023-04-21T19:40:11.485Z,40.28
2023-04-21T19:45:14.985Z,41.65
2023-04-21T19:50:18.718Z,41.22
2023-04-21T19:55:24.094Z,40.92
2023-04-21T20:00:27.687Z,40.30
2023-04-21T20:05:31.195Z,40.62
2023-04-21T20:10:37.666Z,40.64
2023-04-21T20:15:42.199Z,40.95
2023-04-21T20:20:45.808Z,41.32
2023-04-21T20:25:50.714Z,41.35
2023-04-21T20:30:53.962Z,39.54
2023-04-21T20:35:57.500Z,40.73
2023-04-21T20:41:02.516Z,40.60
2023-04-21T20:46:06.134Z,40.15
2023-04-21T20:51:09.684Z,40.33
2023-04-21T20:56:14.555Z,40.49
2023-04-21T21:01:18.348Z,40.65
2023-04-21T21:06:22.346Z,40.92
2023-04-21T21:11:27.380Z,41.17
2023-04-21T21:16:31.524Z,40.57
2023-04-21T21:21:34.995Z,41.17
2023-04-21T21:26:42.533Z,40.93
2023-04-21T21:31:46.515Z,40.95
2023-04-21T21:36:50.044Z,41.22
2023-04-21T21:41:55.317Z,40.96
2023-04-21T21:46:58.829Z,41.80
2023-04-21T21:52:02.776Z,42.97
2023-04-21T21:57:07.810Z,42.31
2023-04-21T22:02:11.410Z,42.42
2023-04-21T22:07:15.106Z,42.50
2023-04-21T22:12:20.014Z,43.00
2023-04-21T22:17:23.797Z,42.43
2023-04-21T22:22:27.382Z,42.27
2023-04-21T22:27:33.879Z,42.40
2023-04-21T22:32:37.710Z,43.25
2023-04-21T22:37:41.153Z,42.63
2023-04-21T22:42:46.163Z,43.30
2023-04-21T22:47:49.823Z,43.82
2023-04-21T22:52:53.511Z,43.31
2023-04-21T22:57:58.412Z,42.92
2023-04-21T23:03:01.860Z,42.74
2023-04-21T23:08:05.762Z,42.84
2023-04-21T23:13:11.100Z,43.00
2023-04-21T23:18:14.563Z,42.56
2023-04-21T23:23:19.763Z,43.04
2023-04-21T23:28:25.103Z,43.69
2023-04-21T23:33:28.650Z,43.28
2023-04-21T23:38:32.116Z,43.28
2023-04-21T23:43:37.400Z,43.71
2023-04-21T23:48:40.818Z,43.33
2023-04-21T23:53:44.398Z,44.27
2023-04-21T23:58:49.347Z,44.43
